sensor_id;sensor_type;location;lat;lon;timestamp;P1;durP1;ratioP1;P2;durP2;ratioP2
73597;SDS011;61874;48.146;11.594;2022-07-23T06:02:46;7.07;;;4.20;;
73597;SDS011;61874;48.146;11.594;2022-07-23T06:05:12;6.35;;;3.63;;
73597;SDS011;61874;48.146;11.594;2022-07-23T06:07:37;7.05;;;3.70;;
73597;SDS011;61874;48.146;11.594;2022-07-23T06:10:03;7.38;;;3.72;;
73597;SDS011;61874;48.146;11.594;2022-07-23T06:12:29;6.78;;;3.70;;
73597;SDS011;61874;48.146;11.594;2022-07-23T06:14:55;8.65;;;3.85;;
73597;SDS011;61874;48.146;11.594;2022-07-23T06:17:20;7.00;;;3.88;;
73597;SDS011;61874;48.146;11.594;2022-07-23T06:19:45;7.80;;;4.38;;
73597;SDS011;61874;48.146;11.594;2022-07-23T06:22:11;6.88;;;4.05;;
73597;SDS011;61874;48.146;11.594;2022-07-23T06:24:36;7.78;;;3.70;;
73597;SDS011;61874;48.146;11.594;2022-07-23T06:27:02;6.13;;;3.67;;
73597;SDS011;61874;48.146;11.594;2022-07-23T06:29:28;5.97;;;3.53;;
73597;SDS011;61874;48.146;11.594;2022-07-23T06:31:53;8.23;;;4.53;;
73597;SDS011;61874;48.146;11.594;2022-07-23T06:34:18;7.25;;;4.07;;
73597;SDS011;61874;48.146;11.594;2022-07-23T06:36:44;7.65;;;3.88;;
73597;SDS011;61874;48.146;11.594;2022-07-23T06:39:09;7.78;;;4.30;;
73597;SDS011;61874;48.146;11.594;2022-07-23T06:41:35;7.55;;;4.25;;
73597;SDS011;61874;48.146;11.594;2022-07-23T06:44:00;7.22;;;3.78;;
73597;SDS011;61874;48.146;11.594;2022-07-23T06:46:26;7.65;;;3.95;;
73597;SDS011;61874;48.146;11.594;2022-07-23T06:48:51;7.60;;;4.68;;
73597;SDS011;61874;48.146;11.594;2022-07-23T06:51:16;6.85;;;4.28;;
73597;SDS011;61874;48.146;11.594;2022-07-23T06:53:42;8.27;;;4.35;;
73597;SDS011;61874;48.146;11.594;2022-07-23T06:56:07;6.32;;;4.07;;
73597;SDS011;61874;48.146;11.594;2022-07-23T06:58:33;9.18;;;4.45;;
73597;SDS011;61874;48.146;11.594;2022-07-23T07:00:58;5.75;;;3.70;;
73597;SDS011;61874;48.146;11.594;2022-07-23T07:03:24;6.53;;;4.18;;
73597;SDS011;61874;48.146;11.594;2022-07-23T07:05:49;8.80;;;3.97;;
73597;SDS011;61874;48.146;11.594;2022-07-23T07:08:15;7.15;;;3.95;;
73597;SDS011;61874;48.146;11.594;2022-07-23T07:10:40;7.00;;;3.75;;
73597;SDS011;61874;48.146;11.594;2022-07-23T07:13:06;5.88;;;3.75;;
73597;SDS011;61874;48.146;11.594;2022-07-23T07:15:31;5.30;;;3.50;;
73597;SDS011;61874;48.146;11.594;2022-07-23T07:17:57;7.22;;;4.18;;
73597;SDS011;61874;48.146;11.594;2022-07-23T07:20:22;8.73;;;3.95;;
73597;SDS011;61874;48.146;11.594;2022-07-23T07:22:48;7.00;;;3.90;;
73597;SDS011;61874;48.146;11.594;2022-07-23T07:27:41;7.30;;;4.22;;
73597;SDS011;61874;48.146;11.594;2022-07-23T07:30:09;8.35;;;4.03;;
73597;SDS011;61874;48.146;11.594;2022-07-23T07:32:35;6.65;;;3.60;;
73597;SDS011;61874;48.146;11.594;2022-07-23T07:35:02;7.85;;;4.20;;
73597;SDS011;61874;48.146;11.594;2022-07-23T07:37:29;6.60;;;4.28;;
73597;SDS011;61874;48.146;11.594;2022-07-23T07:39:54;7.45;;;3.75;;
73597;SDS011;61874;48.146;11.594;2022-07-23T07:42:19;9.68;;;4.50;;
73597;SDS011;61874;48.146;11.594;2022-07-23T07:44:45;7.28;;;3.85;;
73597;SDS011;61874;48.146;11.594;2022-07-23T07:47:10;8.88;;;4.47;;
73597;SDS011;61874;48.146;11.594;2022-07-23T07:49:36;7.60;;;3.88;;
73597;SDS011;61874;48.146;11.594;2022-07-23T07:52:02;8.18;;;4.45;;
73597;SDS011;61874;48.146;11.594;2022-07-23T07:54:28;6.75;;;4.53;;
73597;SDS011;61874;48.146;11.594;2022-07-23T07:56:53;7.38;;;4.78;;
73597;SDS011;61874;48.146;11.594;2022-07-23T08:00:51;6.60;;;4.20;;
73597;SDS011;61874;48.146;11.594;2022-07-23T08:03:17;6.32;;;3.90;;
73597;SDS011;61874;48.146;11.594;2022-07-23T08:05:42;5.85;;;3.83;;
73597;SDS011;61874;48.146;11.594;2022-07-23T08:08:08;7.22;;;4.70;;
73597;SDS011;61874;48.146;11.594;2022-07-23T08:10:34;8.30;;;4.45;;
73597;SDS011;61874;48.146;11.594;2022-07-23T08:13:00;8.18;;;4.43;;
73597;SDS011;61874;48.146;11.594;2022-07-23T08:15:26;7.18;;;4.60;;
73597;SDS011;61874;48.146;11.594;2022-07-23T08:17:53;6.72;;;4.18;;
73597;SDS011;61874;48.146;11.594;2022-07-23T08:20:20;8.35;;;4.28;;
73597;SDS011;61874;48.146;11.594;2022-07-23T08:22:56;7.57;;;4.28;;
73597;SDS011;61874;48.146;11.594;2022-07-23T08:25:29;6.30;;;4.20;;
73597;SDS011;61874;48.146;11.594;2022-07-23T08:28:03;6.40;;;4.35;;
73597;SDS011;61874;48.146;11.594;2022-07-23T08:30:31;6.45;;;4.38;;
73597;SDS011;61874;48.146;11.594;2022-07-23T08:35:39;7.82;;;4.10;;
73597;SDS011;61874;48.146;11.594;2022-07-23T08:38:07;7.57;;;4.10;;
73597;SDS011;61874;48.146;11.594;2022-07-23T08:43:05;7.72;;;4.18;;
73597;SDS011;61874;48.146;11.594;2022-07-23T08:45:35;6.88;;;4.55;;
73597;SDS011;61874;48.146;11.594;2022-07-23T08:48:07;7.40;;;3.97;;
73597;SDS011;61874;48.146;11.594;2022-07-23T08:50:35;6.03;;;3.92;;
73597;SDS011;61874;48.146;11.594;2022-07-23T08:53:02;7.28;;;4.18;;
73597;SDS011;61874;48.146;11.594;2022-07-23T08:55:30;6.63;;;4.05;;
73597;SDS011;61874;48.146;11.594;2022-07-23T08:57:55;6.85;;;4.10;;
73597;SDS011;61874;48.146;11.594;2022-07-23T09:00:21;9.30;;;3.88;;
73597;SDS011;61874;48.146;11.594;2022-07-23T09:02:47;6.78;;;4.05;;
73597;SDS011;61874;48.146;11.594;2022-07-23T09:05:13;10.85;;;5.75;;
73597;SDS011;61874;48.146;11.594;2022-07-23T09:10:30;7.38;;;4.03;;
73597;SDS011;61874;48.146;11.594;2022-07-23T09:13:10;8.85;;;4.28;;
73597;SDS011;61874;48.146;11.594;2022-07-23T09:15:50;8.00;;;5.10;;
73597;SDS011;61874;48.146;11.594;2022-07-23T09:18:17;7.28;;;4.20;;
73597;SDS011;61874;48.146;11.594;2022-07-23T09:20:45;7.05;;;3.70;;
73597;SDS011;61874;48.146;11.594;2022-07-23T09:23:10;6.03;;;3.72;;
73597;SDS011;61874;48.146;11.594;2022-07-23T09:25:36;8.52;;;3.75;;
73597;SDS011;61874;48.146;11.594;2022-07-23T09:28:01;7.45;;;4.35;;
73597;SDS011;61874;48.146;11.594;2022-07-23T09:30:31;8.75;;;4.30;;
73597;SDS011;61874;48.146;11.594;2022-07-23T09:33:13;7.10;;;4.18;;
73597;SDS011;61874;48.146;11.594;2022-07-23T09:35:55;6.57;;;3.85;;
73597;SDS011;61874;48.146;11.594;2022-07-23T09:38:22;7.72;;;4.13;;
73597;SDS011;61874;48.146;11.594;2022-07-23T09:43:35;11.20;;;4.07;;
73597;SDS011;61874;48.146;11.594;2022-07-23T09:46:16;7.90;;;3.63;;
73597;SDS011;61874;48.146;11.594;2022-07-23T09:48:43;5.97;;;4.40;;
73597;SDS011;61874;48.146;11.594;2022-07-23T09:51:09;13.38;;;4.70;;
73597;SDS011;61874;48.146;11.594;2022-07-23T09:53:34;6.85;;;4.53;;
73597;SDS011;61874;48.146;11.594;2022-07-23T09:56:00;6.30;;;3.75;;
73597;SDS011;61874;48.146;11.594;2022-07-23T09:58:26;6.47;;;4.00;;
73597;SDS011;61874;48.146;11.594;2022-07-23T10:00:52;6.32;;;3.33;;
73597;SDS011;61874;48.146;11.594;2022-07-23T10:03:19;8.27;;;3.67;;
73597;SDS011;61874;48.146;11.594;2022-07-23T10:05:44;5.65;;;3.63;;
73597;SDS011;61874;48.146;11.594;2022-07-23T10:08:13;6.05;;;3.33;;
73597;SDS011;61874;48.146;11.594;2022-07-23T10:10:41;6.57;;;3.50;;
73597;SDS011;61874;48.146;11.594;2022-07-23T10:13:09;5.93;;;3.60;;
73597;SDS011;61874;48.146;11.594;2022-07-23T10:15:53;5.55;;;3.55;;
73597;SDS011;61874;48.146;11.594;2022-07-23T10:18:19;7.07;;;3.42;;
73597;SDS011;61874;48.146;11.594;2022-07-23T10:20:45;6.68;;;3.85;;
73597;SDS011;61874;48.146;11.594;2022-07-23T10:26:21;6.60;;;3.50;;
73597;SDS011;61874;48.146;11.594;2022-07-23T10:29:12;5.82;;;3.40;;
73597;SDS011;61874;48.146;11.594;2022-07-23T10:32:17;5.88;;;3.30;;
73597;SDS011;61874;48.146;11.594;2022-07-23T10:40:16;6.60;;;3.65;;
73597;SDS011;61874;48.146;11.594;2022-07-23T10:42:47;8.43;;;3.75;;
73597;SDS011;61874;48.146;11.594;2022-07-23T10:50:39;8.23;;;3.63;;
73597;SDS011;61874;48.146;11.594;2022-07-23T10:57:57;7.20;;;3.72;;
73597;SDS011;61874;48.146;11.594;2022-07-23T11:00:23;11.38;;;3.92;;
73597;SDS011;61874;48.146;11.594;2022-07-23T11:05:18;8.75;;;3.40;;
73597;SDS011;61874;48.146;11.594;2022-07-23T11:10:36;8.32;;;3.85;;
73597;SDS011;61874;48.146;11.594;2022-07-23T11:34:34;5.95;;;3.38;;
73597;SDS011;61874;48.146;11.594;2022-07-23T11:37:01;7.95;;;3.80;;
73597;SDS011;61874;48.146;11.594;2022-07-23T11:39:29;10.98;;;3.95;;
73597;SDS011;61874;48.146;11.594;2022-07-23T11:41:55;8.45;;;4.40;;
73597;SDS011;61874;48.146;11.594;2022-07-23T11:44:29;12.73;;;4.45;;
73597;SDS011;61874;48.146;11.594;2022-07-23T11:46:59;6.47;;;3.50;;
73597;SDS011;61874;48.146;11.594;2022-07-23T11:49:26;6.47;;;3.80;;
73597;SDS011;61874;48.146;11.594;2022-07-23T11:54:52;15.40;;;4.68;;
73597;SDS011;61874;48.146;11.594;2022-07-23T11:57:19;9.20;;;3.97;;
73597;SDS011;61874;48.146;11.594;2022-07-23T11:59:47;8.32;;;4.53;;
73597;SDS011;61874;48.146;11.594;2022-07-23T12:02:16;5.85;;;3.85;;
73597;SDS011;61874;48.146;11.594;2022-07-23T12:10:02;7.70;;;4.28;;
73597;SDS011;61874;48.146;11.594;2022-07-23T12:12:34;7.05;;;4.38;;
73597;SDS011;61874;48.146;11.594;2022-07-23T12:15:00;7.07;;;4.60;;
73597;SDS011;61874;48.146;11.594;2022-07-23T12:17:29;11.57;;;4.88;;
73597;SDS011;61874;48.146;11.594;2022-07-23T12:19:58;7.88;;;4.70;;
73597;SDS011;61874;48.146;11.594;2022-07-23T12:22:26;8.15;;;4.93;;
73597;SDS011;61874;48.146;11.594;2022-07-23T12:24:59;7.53;;;4.45;;
73597;SDS011;61874;48.146;11.594;2022-07-23T12:27:26;9.70;;;4.85;;
73597;SDS011;61874;48.146;11.594;2022-07-23T12:29:52;7.63;;;4.38;;
73597;SDS011;61874;48.146;11.594;2022-07-23T12:34:45;8.00;;;4.57;;
73597;SDS011;61874;48.146;11.594;2022-07-23T12:37:32;7.97;;;4.57;;
73597;SDS011;61874;48.146;11.594;2022-07-23T12:40:17;8.90;;;4.35;;
73597;SDS011;61874;48.146;11.594;2022-07-23T12:43:06;9.82;;;5.25;;
73597;SDS011;61874;48.146;11.594;2022-07-23T12:45:47;7.03;;;3.80;;
73597;SDS011;61874;48.146;11.594;2022-07-23T12:50:58;8.05;;;4.50;;
73597;SDS011;61874;48.146;11.594;2022-07-23T12:56:10;7.35;;;4.22;;
73597;SDS011;61874;48.146;11.594;2022-07-23T13:01:05;12.52;;;4.40;;
73597;SDS011;61874;48.146;11.594;2022-07-23T13:06:01;8.27;;;4.10;;
73597;SDS011;61874;48.146;11.594;2022-07-23T13:08:29;13.18;;;4.45;;
73597;SDS011;61874;48.146;11.594;2022-07-23T13:10:57;6.43;;;4.22;;
73597;SDS011;61874;48.146;11.594;2022-07-23T13:13:26;9.43;;;4.05;;
73597;SDS011;61874;48.146;11.594;2022-07-23T13:15:53;5.85;;;3.83;;
73597;SDS011;61874;48.146;11.594;2022-07-23T13:18:20;9.25;;;4.20;;
73597;SDS011;61874;48.146;11.594;2022-07-23T13:20:46;7.55;;;4.40;;
73597;SDS011;61874;48.146;11.594;2022-07-23T13:23:13;11.40;;;4.32;;
73597;SDS011;61874;48.146;11.594;2022-07-23T13:25:39;7.30;;;4.47;;
73597;SDS011;61874;48.146;11.594;2022-07-23T13:28:05;6.28;;;4.28;;
73597;SDS011;61874;48.146;11.594;2022-07-23T13:30:30;9.27;;;4.35;;
73597;SDS011;61874;48.146;11.594;2022-07-23T13:32:56;7.25;;;4.32;;
73597;SDS011;61874;48.146;11.594;2022-07-23T13:35:21;7.00;;;4.45;;
73597;SDS011;61874;48.146;11.594;2022-07-23T13:37:47;7.32;;;3.90;;
73597;SDS011;61874;48.146;11.594;2022-07-23T13:40:15;9.13;;;4.32;;
73597;SDS011;61874;48.146;11.594;2022-07-23T13:42:41;7.82;;;4.70;;
73597;SDS011;61874;48.146;11.594;2022-07-23T13:45:06;16.58;;;4.78;;
73597;SDS011;61874;48.146;11.594;2022-07-23T13:47:32;14.45;;;4.30;;
73597;SDS011;61874;48.146;11.594;2022-07-23T13:49:58;5.95;;;4.07;;
73597;SDS011;61874;48.146;11.594;2022-07-23T13:52:24;7.53;;;4.10;;
73597;SDS011;61874;48.146;11.594;2022-07-23T13:54:49;7.72;;;4.50;;
73597;SDS011;61874;48.146;11.594;2022-07-23T13:57:15;6.30;;;4.53;;
73597;SDS011;61874;48.146;11.594;2022-07-23T13:59:41;8.50;;;4.57;;
73597;SDS011;61874;48.146;11.594;2022-07-23T14:02:06;7.82;;;4.97;;
73597;SDS011;61874;48.146;11.594;2022-07-23T14:04:32;13.10;;;4.88;;
73597;SDS011;61874;48.146;11.594;2022-07-23T14:06:58;11.77;;;4.70;;
73597;SDS011;61874;48.146;11.594;2022-07-23T14:09:23;7.30;;;4.40;;
73597;SDS011;61874;48.146;11.594;2022-07-23T14:11:49;10.85;;;4.90;;
73597;SDS011;61874;48.146;11.594;2022-07-23T14:14:16;10.57;;;4.28;;
73597;SDS011;61874;48.146;11.594;2022-07-23T14:16:42;9.77;;;4.47;;
73597;SDS011;61874;48.146;11.594;2022-07-23T14:19:08;9.32;;;4.50;;
73597;SDS011;61874;48.146;11.594;2022-07-23T14:21:34;11.15;;;3.90;;
73597;SDS011;61874;48.146;11.594;2022-07-23T14:23:59;8.80;;;4.30;;
73597;SDS011;61874;48.146;11.594;2022-07-23T14:26:24;9.38;;;4.65;;
73597;SDS011;61874;48.146;11.594;2022-07-23T14:28:50;8.88;;;4.53;;
73597;SDS011;61874;48.146;11.594;2022-07-23T14:31:15;15.35;;;4.57;;
73597;SDS011;61874;48.146;11.594;2022-07-23T14:33:41;11.23;;;4.22;;
73597;SDS011;61874;48.146;11.594;2022-07-23T14:36:06;7.40;;;4.05;;
73597;SDS011;61874;48.146;11.594;2022-07-23T14:38:31;6.88;;;4.20;;
73597;SDS011;61874;48.146;11.594;2022-07-23T14:40:57;8.90;;;4.90;;
73597;SDS011;61874;48.146;11.594;2022-07-23T14:43:22;11.20;;;4.25;;
73597;SDS011;61874;48.146;11.594;2022-07-23T14:45:48;8.25;;;4.10;;
73597;SDS011;61874;48.146;11.594;2022-07-23T14:48:13;7.88;;;4.43;;
73597;SDS011;61874;48.146;11.594;2022-07-23T14:50:39;10.80;;;4.47;;
73597;SDS011;61874;48.146;11.594;2022-07-23T14:53:04;11.25;;;4.30;;
73597;SDS011;61874;48.146;11.594;2022-07-23T14:55:30;8.52;;;4.47;;
73597;SDS011;61874;48.146;11.594;2022-07-23T14:57:57;7.50;;;4.28;;
73597;SDS011;61874;48.146;11.594;2022-07-23T15:00:23;6.10;;;4.00;;
73597;SDS011;61874;48.146;11.594;2022-07-23T15:02:48;16.42;;;4.32;;
73597;SDS011;61874;48.146;11.594;2022-07-23T15:05:14;10.55;;;5.53;;
73597;SDS011;61874;48.146;11.594;2022-07-23T15:07:39;8.70;;;4.68;;
73597;SDS011;61874;48.146;11.594;2022-07-23T15:10:05;7.00;;;4.00;;
73597;SDS011;61874;48.146;11.594;2022-07-23T15:12:30;8.27;;;4.00;;
73597;SDS011;61874;48.146;11.594;2022-07-23T15:14:56;8.85;;;4.28;;
73597;SDS011;61874;48.146;11.594;2022-07-23T15:17:21;11.20;;;4.40;;
73597;SDS011;61874;48.146;11.594;2022-07-23T15:19:47;14.05;;;4.65;;
73597;SDS011;61874;48.146;11.594;2022-07-23T15:22:12;7.22;;;4.57;;
73597;SDS011;61874;48.146;11.594;2022-07-23T15:24:38;7.97;;;4.40;;
73597;SDS011;61874;48.146;11.594;2022-07-23T15:27:03;7.82;;;4.53;;
73597;SDS011;61874;48.146;11.594;2022-07-23T15:29:29;8.73;;;4.60;;
73597;SDS011;61874;48.146;11.594;2022-07-23T15:31:54;7.65;;;4.97;;
73597;SDS011;61874;48.146;11.594;2022-07-23T15:34:20;8.55;;;4.47;;
73597;SDS011;61874;48.146;11.594;2022-07-23T15:36:45;7.68;;;5.10;;
73597;SDS011;61874;48.146;11.594;2022-07-23T15:39:10;7.60;;;4.53;;
73597;SDS011;61874;48.146;11.594;2022-07-23T15:41:36;8.02;;;4.50;;
73597;SDS011;61874;48.146;11.594;2022-07-23T15:44:01;7.57;;;4.80;;
73597;SDS011;61874;48.146;11.594;2022-07-23T15:46:27;6.82;;;4.57;;
73597;SDS011;61874;48.146;11.594;2022-07-23T15:48:52;8.13;;;4.45;;
73597;SDS011;61874;48.146;11.594;2022-07-23T15:51:18;7.32;;;4.70;;
73597;SDS011;61874;48.146;11.594;2022-07-23T15:53:43;8.07;;;4.13;;
73597;SDS011;61874;48.146;11.594;2022-07-23T15:56:09;7.43;;;4.70;;
73597;SDS011;61874;48.146;11.594;2022-07-23T15:58:36;7.30;;;4.55;;
73597;SDS011;61874;48.146;11.594;2022-07-23T16:01:02;9.35;;;4.78;;
73597;SDS011;61874;48.146;11.594;2022-07-23T16:03:29;9.45;;;4.95;;
73597;SDS011;61874;48.146;11.594;2022-07-23T16:05:55;11.50;;;5.43;;
73597;SDS011;61874;48.146;11.594;2022-07-23T16:08:20;7.07;;;4.88;;
73597;SDS011;61874;48.146;11.594;2022-07-23T16:10:46;6.93;;;5.43;;
73597;SDS011;61874;48.146;11.594;2022-07-23T16:13:21;14.35;;;5.65;;
73597;SDS011;61874;48.146;11.594;2022-07-23T16:15:46;11.38;;;5.20;;
73597;SDS011;61874;48.146;11.594;2022-07-23T16:18:12;10.43;;;4.95;;
73597;SDS011;61874;48.146;11.594;2022-07-23T16:20:38;7.85;;;4.88;;
73597;SDS011;61874;48.146;11.594;2022-07-23T16:23:03;10.27;;;4.93;;
73597;SDS011;61874;48.146;11.594;2022-07-23T16:25:30;11.93;;;5.05;;
73597;SDS011;61874;48.146;11.594;2022-07-23T16:27:55;10.13;;;5.82;;
73597;SDS011;61874;48.146;11.594;2022-07-23T16:30:21;14.55;;;5.38;;
73597;SDS011;61874;48.146;11.594;2022-07-23T16:32:46;8.77;;;5.47;;
73597;SDS011;61874;48.146;11.594;2022-07-23T16:35:12;9.38;;;5.32;;
73597;SDS011;61874;48.146;11.594;2022-07-23T16:37:38;9.77;;;5.60;;
73597;SDS011;61874;48.146;11.594;2022-07-23T16:40:05;9.77;;;5.32;;
73597;SDS011;61874;48.146;11.594;2022-07-23T16:42:32;9.48;;;5.15;;
73597;SDS011;61874;48.146;11.594;2022-07-23T16:44:58;12.48;;;6.07;;
73597;SDS011;61874;48.146;11.594;2022-07-23T16:47:24;11.88;;;5.45;;
73597;SDS011;61874;48.146;11.594;2022-07-23T16:49:49;8.65;;;5.65;;
73597;SDS011;61874;48.146;11.594;2022-07-23T16:52:15;8.18;;;5.47;;
73597;SDS011;61874;48.146;11.594;2022-07-23T16:54:40;10.00;;;5.30;;
73597;SDS011;61874;48.146;11.594;2022-07-23T16:57:05;14.68;;;5.22;;
73597;SDS011;61874;48.146;11.594;2022-07-23T16:59:31;10.82;;;5.97;;
73597;SDS011;61874;48.146;11.594;2022-07-23T17:01:56;8.48;;;5.40;;
73597;SDS011;61874;48.146;11.594;2022-07-23T17:04:22;8.27;;;5.32;;
73597;SDS011;61874;48.146;11.594;2022-07-23T17:06:47;10.52;;;5.60;;
73597;SDS011;61874;48.146;11.594;2022-07-23T17:09:13;13.48;;;5.93;;
73597;SDS011;61874;48.146;11.594;2022-07-23T17:11:39;10.20;;;5.43;;
73597;SDS011;61874;48.146;11.594;2022-07-23T17:14:05;9.48;;;4.95;;
73597;SDS011;61874;48.146;11.594;2022-07-23T17:16:31;10.57;;;5.57;;
73597;SDS011;61874;48.146;11.594;2022-07-23T17:18:56;13.93;;;5.47;;
73597;SDS011;61874;48.146;11.594;2022-07-23T17:21:22;12.05;;;5.93;;
73597;SDS011;61874;48.146;11.594;2022-07-23T17:23:47;9.38;;;5.05;;
73597;SDS011;61874;48.146;11.594;2022-07-23T17:26:13;12.27;;;5.10;;
73597;SDS011;61874;48.146;11.594;2022-07-23T17:28:38;11.38;;;5.15;;
73597;SDS011;61874;48.146;11.594;2022-07-23T17:31:04;10.65;;;6.10;;
73597;SDS011;61874;48.146;11.594;2022-07-23T17:33:30;11.32;;;5.35;;
73597;SDS011;61874;48.146;11.594;2022-07-23T17:35:55;10.07;;;5.72;;
73597;SDS011;61874;48.146;11.594;2022-07-23T17:38:21;9.35;;;5.30;;
73597;SDS011;61874;48.146;11.594;2022-07-23T17:40:47;14.27;;;5.90;;
73597;SDS011;61874;48.146;11.594;2022-07-23T17:43:12;11.75;;;5.55;;
73597;SDS011;61874;48.146;11.594;2022-07-23T17:45:38;8.27;;;5.53;;
73597;SDS011;61874;48.146;11.594;2022-07-23T17:48:04;9.07;;;5.45;;
73597;SDS011;61874;48.146;11.594;2022-07-23T17:50:30;11.68;;;6.10;;
73597;SDS011;61874;48.146;11.594;2022-07-23T17:52:56;8.25;;;5.22;;
73597;SDS011;61874;48.146;11.594;2022-07-23T17:55:22;8.07;;;5.45;;
73597;SDS011;61874;48.146;11.594;2022-07-23T17:57:50;9.38;;;5.95;;
73597;SDS011;61874;48.146;11.594;2022-07-23T18:00:17;8.25;;;5.43;;
73597;SDS011;61874;48.146;11.594;2022-07-23T18:02:44;8.50;;;5.38;;
73597;SDS011;61874;48.146;11.594;2022-07-23T18:05:09;10.68;;;5.50;;
73597;SDS011;61874;48.146;11.594;2022-07-23T18:07:35;10.88;;;5.03;;
73597;SDS011;61874;48.146;11.594;2022-07-23T18:10:01;13.93;;;6.03;;
73597;SDS011;61874;48.146;11.594;2022-07-23T18:12:26;9.90;;;5.95;;
73597;SDS011;61874;48.146;11.594;2022-07-23T18:14:52;10.50;;;5.10;;
73597;SDS011;61874;48.146;11.594;2022-07-23T18:17:18;9.68;;;5.30;;
73597;SDS011;61874;48.146;11.594;2022-07-23T18:19:43;14.52;;;5.82;;
73597;SDS011;61874;48.146;11.594;2022-07-23T18:22:09;10.13;;;5.82;;
73597;SDS011;61874;48.146;11.594;2022-07-23T18:24:35;10.75;;;6.03;;
73597;SDS011;61874;48.146;11.594;2022-07-23T18:27:01;13.32;;;6.28;;
73597;SDS011;61874;48.146;11.594;2022-07-23T18:29:26;9.32;;;5.38;;
73597;SDS011;61874;48.146;11.594;2022-07-23T18:31:52;10.48;;;5.63;;
73597;SDS011;61874;48.146;11.594;2022-07-23T18:34:17;8.45;;;5.65;;
73597;SDS011;61874;48.146;11.594;2022-07-23T18:36:43;10.68;;;6.20;;
73597;SDS011;61874;48.146;11.594;2022-07-23T18:39:08;9.80;;;5.78;;
73597;SDS011;61874;48.146;11.594;2022-07-23T18:41:34;8.40;;;5.30;;
73597;SDS011;61874;48.146;11.594;2022-07-23T18:43:59;11.70;;;5.50;;
73597;SDS011;61874;48.146;11.594;2022-07-23T18:46:25;8.98;;;5.20;;
73597;SDS011;61874;48.146;11.594;2022-07-23T18:48:50;7.97;;;5.30;;
73597;SDS011;61874;48.146;11.594;2022-07-23T18:51:16;7.90;;;5.47;;
73597;SDS011;61874;48.146;11.594;2022-07-23T18:53:42;9.40;;;5.60;;
73597;SDS011;61874;48.146;11.594;2022-07-23T18:56:08;12.85;;;6.13;;
73597;SDS011;61874;48.146;11.594;2022-07-23T18:58:33;7.28;;;5.32;;
73597;SDS011;61874;48.146;11.594;2022-07-23T19:00:59;10.90;;;5.50;;
73597;SDS011;61874;48.146;11.594;2022-07-23T19:03:24;11.23;;;5.43;;
73597;SDS011;61874;48.146;11.594;2022-07-23T19:05:50;13.00;;;6.13;;
73597;SDS011;61874;48.146;11.594;2022-07-23T19:08:15;12.38;;;5.97;;
73597;SDS011;61874;48.146;11.594;2022-07-23T19:10:40;17.35;;;7.20;;
73597;SDS011;61874;48.146;11.594;2022-07-23T19:13:06;9.88;;;6.07;;
73597;SDS011;61874;48.146;11.594;2022-07-23T19:15:32;11.10;;;6.05;;
73597;SDS011;61874;48.146;11.594;2022-07-23T19:17:58;10.20;;;5.53;;
73597;SDS011;61874;48.146;11.594;2022-07-23T19:20:24;8.00;;;5.60;;
73597;SDS011;61874;48.146;11.594;2022-07-23T19:22:50;10.40;;;5.85;;
73597;SDS011;61874;48.146;11.594;2022-07-23T19:25:15;10.27;;;5.93;;
73597;SDS011;61874;48.146;11.594;2022-07-23T19:27:41;8.70;;;5.32;;
73597;SDS011;61874;48.146;11.594;2022-07-23T19:30:07;11.13;;;5.55;;
73597;SDS011;61874;48.146;11.594;2022-07-23T19:32:33;10.15;;;5.75;;
73597;SDS011;61874;48.146;11.594;2022-07-23T19:34:59;9.85;;;6.05;;
73597;SDS011;61874;48.146;11.594;2022-07-23T19:37:24;10.05;;;6.28;;
73597;SDS011;61874;48.146;11.594;2022-07-23T19:39:50;10.80;;;6.15;;
73597;SDS011;61874;48.146;11.594;2022-07-23T19:42:17;10.18;;;5.95;;
73597;SDS011;61874;48.146;11.594;2022-07-23T19:44:42;11.23;;;5.57;;
73597;SDS011;61874;48.146;11.594;2022-07-23T19:47:07;9.30;;;5.90;;
73597;SDS011;61874;48.146;11.594;2022-07-23T19:49:33;11.15;;;5.53;;
73597;SDS011;61874;48.146;11.594;2022-07-23T19:51:58;12.20;;;6.13;;
73597;SDS011;61874;48.146;11.594;2022-07-23T19:54:25;13.50;;;6.50;;
73597;SDS011;61874;48.146;11.594;2022-07-23T19:56:51;10.45;;;6.45;;
73597;SDS011;61874;48.146;11.594;2022-07-23T19:59:16;8.65;;;5.85;;
73597;SDS011;61874;48.146;11.594;2022-07-23T20:01:42;8.88;;;5.53;;
73597;SDS011;61874;48.146;11.594;2022-07-23T20:04:08;9.48;;;5.70;;
73597;SDS011;61874;48.146;11.594;2022-07-23T20:06:33;8.35;;;6.10;;
73597;SDS011;61874;48.146;11.594;2022-07-23T20:08:59;8.65;;;5.65;;
73597;SDS011;61874;48.146;11.594;2022-07-23T20:11:24;10.55;;;5.95;;
73597;SDS011;61874;48.146;11.594;2022-07-23T20:13:50;9.90;;;5.63;;
73597;SDS011;61874;48.146;11.594;2022-07-23T20:16:16;8.70;;;5.18;;
73597;SDS011;61874;48.146;11.594;2022-07-23T20:18:41;7.88;;;5.30;;
73597;SDS011;61874;48.146;11.594;2022-07-23T20:21:07;8.32;;;5.38;;
73597;SDS011;61874;48.146;11.594;2022-07-23T20:23:32;9.88;;;5.50;;
73597;SDS011;61874;48.146;11.594;2022-07-23T20:25:58;10.27;;;5.50;;
73597;SDS011;61874;48.146;11.594;2022-07-23T20:28:24;9.95;;;5.68;;
73597;SDS011;61874;48.146;11.594;2022-07-23T20:30:50;12.27;;;5.55;;
73597;SDS011;61874;48.146;11.594;2022-07-23T20:33:17;13.35;;;6.28;;
73597;SDS011;61874;48.146;11.594;2022-07-23T20:35:44;11.52;;;6.70;;
73597;SDS011;61874;48.146;11.594;2022-07-23T20:38:09;9.23;;;5.53;;
73597;SDS011;61874;48.146;11.594;2022-07-23T20:40:35;8.32;;;5.20;;
73597;SDS011;61874;48.146;11.594;2022-07-23T20:43:01;9.32;;;5.50;;
73597;SDS011;61874;48.146;11.594;2022-07-23T20:45:26;8.43;;;5.22;;
73597;SDS011;61874;48.146;11.594;2022-07-23T20:47:52;7.07;;;4.97;;
73597;SDS011;61874;48.146;11.594;2022-07-23T20:50:20;10.10;;;5.30;;
73597;SDS011;61874;48.146;11.594;2022-07-23T20:52:46;8.15;;;5.53;;
73597;SDS011;61874;48.146;11.594;2022-07-23T20:55:11;11.20;;;5.18;;
73597;SDS011;61874;48.146;11.594;2022-07-23T20:57:38;9.15;;;6.20;;
73597;SDS011;61874;48.146;11.594;2022-07-23T21:00:05;10.18;;;5.07;;
73597;SDS011;61874;48.146;11.594;2022-07-23T21:02:31;7.10;;;5.00;;
73597;SDS011;61874;48.146;11.594;2022-07-23T21:04:57;8.35;;;4.90;;
73597;SDS011;61874;48.146;11.594;2022-07-23T21:07:22;7.03;;;4.50;;
73597;SDS011;61874;48.146;11.594;2022-07-23T21:09:48;8.55;;;5.13;;
73597;SDS011;61874;48.146;11.594;2022-07-23T21:12:13;9.05;;;5.50;;
73597;SDS011;61874;48.146;11.594;2022-07-23T21:14:39;9.13;;;4.82;;
73597;SDS011;61874;48.146;11.594;2022-07-23T21:17:04;8.38;;;5.28;;
73597;SDS011;61874;48.146;11.594;2022-07-23T21:19:30;10.88;;;5.78;;
73597;SDS011;61874;48.146;11.594;2022-07-23T21:21:55;8.40;;;4.75;;
73597;SDS011;61874;48.146;11.594;2022-07-23T21:24:21;7.30;;;4.82;;
73597;SDS011;61874;48.146;11.594;2022-07-23T21:26:46;11.73;;;4.72;;
73597;SDS011;61874;48.146;11.594;2022-07-23T21:29:11;12.18;;;5.18;;
73597;SDS011;61874;48.146;11.594;2022-07-23T21:31:37;7.05;;;4.72;;
73597;SDS011;61874;48.146;11.594;2022-07-23T21:34:02;9.15;;;5.45;;
73597;SDS011;61874;48.146;11.594;2022-07-23T21:36:28;10.30;;;5.50;;
73597;SDS011;61874;48.146;11.594;2022-07-23T21:38:53;10.27;;;5.45;;
73597;SDS011;61874;48.146;11.594;2022-07-23T21:41:19;8.00;;;5.10;;
73597;SDS011;61874;48.146;11.594;2022-07-23T21:43:44;9.85;;;5.45;;
73597;SDS011;61874;48.146;11.594;2022-07-23T21:46:10;6.53;;;4.68;;
73597;SDS011;61874;48.146;11.594;2022-07-23T21:48:35;7.32;;;4.78;;
73597;SDS011;61874;48.146;11.594;2022-07-23T21:51:03;8.70;;;5.43;;